sensor_id;sensor_type;location;lat;lon;timestamp;P1;durP1;ratioP1;P2;durP2;ratioP2
30515;SDS011;17297;54.022;10.760;2023-02-14T00:00:04;7.75;;;6.13;;
30515;SDS011;17297;54.022;10.760;2023-02-14T00:02:33;7.78;;;5.60;;
30515;SDS011;17297;54.022;10.760;2023-02-14T00:04:58;6.97;;;5.13;;
30515;SDS011;17297;54.022;10.760;2023-02-14T00:07:24;8.00;;;5.65;;
30515;SDS011;17297;54.022;10.760;2023-02-14T00:09:49;6.90;;;4.80;;
30515;SDS011;17297;54.022;10.760;2023-02-14T00:12:14;7.22;;;5.40;;
30515;SDS011;17297;54.022;10.760;2023-02-14T00:14:40;7.47;;;5.75;;
30515;SDS011;17297;54.022;10.760;2023-02-14T00:17:24;8.88;;;6.20;;
30515;SDS011;17297;54.022;10.760;2023-02-14T00:19:49;8.10;;;5.80;;
30515;SDS011;17297;54.022;10.760;2023-02-14T00:22:14;7.68;;;4.80;;
30515;SDS011;17297;54.022;10.760;2023-02-14T00:24:40;8.18;;;5.45;;
30515;SDS011;17297;54.022;10.760;2023-02-14T00:27:05;6.95;;;5.32;;
30515;SDS011;17297;54.022;10.760;2023-02-14T00:29:31;7.72;;;5.80;;
30515;SDS011;17297;54.022;10.760;2023-02-14T00:31:57;7.38;;;5.82;;
30515;SDS011;17297;54.022;10.760;2023-02-14T00:34:22;6.28;;;4.63;;
30515;SDS011;17297;54.022;10.760;2023-02-14T00:36:48;7.35;;;5.85;;
30515;SDS011;17297;54.022;10.760;2023-02-14T00:39:15;9.18;;;6.47;;
30515;SDS011;17297;54.022;10.760;2023-02-14T00:41:41;6.50;;;5.45;;
30515;SDS011;17297;54.022;10.760;2023-02-14T00:44:07;10.07;;;5.82;;
30515;SDS011;17297;54.022;10.760;2023-02-14T00:46:34;6.43;;;5.35;;
30515;SDS011;17297;54.022;10.760;2023-02-14T00:49:00;9.55;;;5.68;;
30515;SDS011;17297;54.022;10.760;2023-02-14T00:51:26;8.65;;;5.82;;
30515;SDS011;17297;54.022;10.760;2023-02-14T00:53:52;7.90;;;5.40;;
30515;SDS011;17297;54.022;10.760;2023-02-14T00:56:17;9.20;;;5.72;;
30515;SDS011;17297;54.022;10.760;2023-02-14T00:58:43;7.45;;;5.25;;
30515;SDS011;17297;54.022;10.760;2023-02-14T01:01:09;9.05;;;5.75;;
30515;SDS011;17297;54.022;10.760;2023-02-14T01:03:40;8.13;;;5.90;;
30515;SDS011;17297;54.022;10.760;2023-02-14T01:06:06;8.68;;;5.93;;
30515;SDS011;17297;54.022;10.760;2023-02-14T01:08:32;8.13;;;5.55;;
30515;SDS011;17297;54.022;10.760;2023-02-14T01:11:05;7.03;;;5.57;;
30515;SDS011;17297;54.022;10.760;2023-02-14T01:13:57;6.95;;;4.88;;
30515;SDS011;17297;54.022;10.760;2023-02-14T01:16:24;7.15;;;5.28;;
30515;SDS011;17297;54.022;10.760;2023-02-14T01:18:53;8.82;;;5.43;;
30515;SDS011;17297;54.022;10.760;2023-02-14T01:21:19;7.28;;;5.47;;
30515;SDS011;17297;54.022;10.760;2023-02-14T01:23:48;6.70;;;5.38;;
30515;SDS011;17297;54.022;10.760;2023-02-14T01:26:17;7.53;;;6.45;;
30515;SDS011;17297;54.022;10.760;2023-02-14T01:28:43;8.05;;;5.57;;
30515;SDS011;17297;54.022;10.760;2023-02-14T01:31:10;8.93;;;6.05;;
30515;SDS011;17297;54.022;10.760;2023-02-14T01:33:41;9.10;;;6.63;;
30515;SDS011;17297;54.022;10.760;2023-02-14T01:36:19;9.35;;;6.50;;
30515;SDS011;17297;54.022;10.760;2023-02-14T01:38:53;8.13;;;5.60;;
30515;SDS011;17297;54.022;10.760;2023-02-14T01:41:21;7.28;;;5.78;;
30515;SDS011;17297;54.022;10.760;2023-02-14T01:43:55;7.80;;;5.65;;
30515;SDS011;17297;54.022;10.760;2023-02-14T01:46:33;8.32;;;6.03;;
30515;SDS011;17297;54.022;10.760;2023-02-14T01:49:02;8.90;;;6.28;;
30515;SDS011;17297;54.022;10.760;2023-02-14T01:52:08;9.55;;;5.70;;
30515;SDS011;17297;54.022;10.760;2023-02-14T01:54:40;7.82;;;5.30;;
30515;SDS011;17297;54.022;10.760;2023-02-14T01:57:10;7.28;;;5.78;;
30515;SDS011;17297;54.022;10.760;2023-02-14T01:59:40;9.63;;;6.18;;
30515;SDS011;17297;54.022;10.760;2023-02-14T02:02:14;7.95;;;5.80;;
30515;SDS011;17297;54.022;10.760;2023-02-14T02:04:47;8.88;;;5.63;;
30515;SDS011;17297;54.022;10.760;2023-02-14T02:07:20;7.38;;;5.38;;
30515;SDS011;17297;54.022;10.760;2023-02-14T02:09:51;8.15;;;5.97;;
30515;SDS011;17297;54.022;10.760;2023-02-14T02:12:21;9.35;;;6.43;;
30515;SDS011;17297;54.022;10.760;2023-02-14T02:14:48;7.25;;;5.32;;
30515;SDS011;17297;54.022;10.760;2023-02-14T02:17:19;7.13;;;5.50;;
30515;SDS011;17297;54.022;10.760;2023-02-14T02:20:16;9.60;;;5.30;;
30515;SDS011;17297;54.022;10.760;2023-02-14T02:23:42;7.40;;;5.70;;
30515;SDS011;17297;54.022;10.760;2023-02-14T02:29:12;7.28;;;5.63;;
30515;SDS011;17297;54.022;10.760;2023-02-14T02:34:51;9.30;;;6.03;;
30515;SDS011;17297;54.022;10.760;2023-02-14T02:42:46;9.05;;;5.75;;
30515;SDS011;17297;54.022;10.760;2023-02-14T02:45:42;9.40;;;6.25;;
30515;SDS011;17297;54.022;10.760;2023-02-14T02:48:34;9.40;;;6.72;;
30515;SDS011;17297;54.022;10.760;2023-02-14T02:51:09;11.07;;;7.47;;
30515;SDS011;17297;54.022;10.760;2023-02-14T02:54:02;10.23;;;6.65;;
30515;SDS011;17297;54.022;10.760;2023-02-14T02:56:53;9.60;;;7.10;;
30515;SDS011;17297;54.022;10.760;2023-02-14T02:59:30;10.88;;;7.72;;
30515;SDS011;17297;54.022;10.760;2023-02-14T03:04:59;9.60;;;7.18;;
30515;SDS011;17297;54.022;10.760;2023-02-14T03:07:30;11.80;;;7.97;;
30515;SDS011;17297;54.022;10.760;2023-02-14T03:10:14;13.65;;;9.32;;
30515;SDS011;17297;54.022;10.760;2023-02-14T03:18:08;12.73;;;8.40;;
30515;SDS011;17297;54.022;10.760;2023-02-14T03:20:52;11.43;;;8.13;;
30515;SDS011;17297;54.022;10.760;2023-02-14T03:23:32;13.10;;;8.82;;
30515;SDS011;17297;54.022;10.760;2023-02-14T03:28:45;14.38;;;10.20;;
30515;SDS011;17297;54.022;10.760;2023-02-14T03:31:33;14.25;;;10.05;;
30515;SDS011;17297;54.022;10.760;2023-02-14T03:34:13;15.05;;;10.13;;
30515;SDS011;17297;54.022;10.760;2023-02-14T03:37:30;15.80;;;10.65;;
30515;SDS011;17297;54.022;10.760;2023-02-14T03:39:43;13.38;;;9.52;;
30515;SDS011;17297;54.022;10.760;2023-02-14T03:42:24;12.65;;;8.98;;
30515;SDS011;17297;54.022;10.760;2023-02-14T03:44:55;15.57;;;10.93;;
30515;SDS011;17297;54.022;10.760;2023-02-14T03:47:23;15.45;;;11.50;;
30515;SDS011;17297;54.022;10.760;2023-02-14T03:49:55;17.60;;;12.40;;
30515;SDS011;17297;54.022;10.760;2023-02-14T03:52:26;20.48;;;14.40;;
30515;SDS011;17297;54.022;10.760;2023-02-14T03:54:55;16.10;;;11.20;;
30515;SDS011;17297;54.022;10.760;2023-02-14T03:57:27;17.67;;;12.45;;
30515;SDS011;17297;54.022;10.760;2023-02-14T03:59:56;17.58;;;11.80;;
30515;SDS011;17297;54.022;10.760;2023-02-14T04:05:02;18.77;;;12.45;;
30515;SDS011;17297;54.022;10.760;2023-02-14T04:07:43;19.73;;;13.40;;
30515;SDS011;17297;54.022;10.760;2023-02-14T04:10:10;19.42;;;12.30;;
30515;SDS011;17297;54.022;10.760;2023-02-14T04:12:35;17.58;;;12.20;;
30515;SDS011;17297;54.022;10.760;2023-02-14T04:15:01;16.30;;;12.68;;
30515;SDS011;17297;54.022;10.760;2023-02-14T04:17:26;17.23;;;11.70;;
30515;SDS011;17297;54.022;10.760;2023-02-14T04:20:10;18.30;;;12.35;;
30515;SDS011;17297;54.022;10.760;2023-02-14T04:22:36;18.98;;;12.38;;
30515;SDS011;17297;54.022;10.760;2023-02-14T04:25:01;19.65;;;12.90;;
30515;SDS011;17297;54.022;10.760;2023-02-14T04:27:26;18.85;;;12.52;;
30515;SDS011;17297;54.022;10.760;2023-02-14T04:29:52;18.98;;;12.70;;
30515;SDS011;17297;54.022;10.760;2023-02-14T04:32:18;19.60;;;12.90;;
30515;SDS011;17297;54.022;10.760;2023-02-14T04:34:45;18.83;;;12.40;;
30515;SDS011;17297;54.022;10.760;2023-02-14T04:37:11;19.73;;;12.85;;
30515;SDS011;17297;54.022;10.760;2023-02-14T04:39:37;16.88;;;12.80;;
30515;SDS011;17297;54.022;10.760;2023-02-14T04:42:03;16.90;;;13.13;;
30515;SDS011;17297;54.022;10.760;2023-02-14T04:44:29;19.58;;;12.52;;
30515;SDS011;17297;54.022;10.760;2023-02-14T04:46:55;16.05;;;10.88;;
30515;SDS011;17297;54.022;10.760;2023-02-14T04:49:20;19.20;;;12.55;;
30515;SDS011;17297;54.022;10.760;2023-02-14T04:51:46;16.38;;;11.65;;
30515;SDS011;17297;54.022;10.760;2023-02-14T04:54:12;16.85;;;11.63;;
30515;SDS011;17297;54.022;10.760;2023-02-14T04:56:37;16.30;;;11.15;;
30515;SDS011;17297;54.022;10.760;2023-02-14T04:59:03;17.13;;;11.57;;
30515;SDS011;17297;54.022;10.760;2023-02-14T05:01:28;17.55;;;12.60;;
30515;SDS011;17297;54.022;10.760;2023-02-14T05:03:54;16.77;;;12.52;;
30515;SDS011;17297;54.022;10.760;2023-02-14T05:06:19;16.55;;;11.45;;
30515;SDS011;17297;54.022;10.760;2023-02-14T05:08:45;19.70;;;13.75;;
30515;SDS011;17297;54.022;10.760;2023-02-14T05:11:10;20.20;;;12.20;;
30515;SDS011;17297;54.022;10.760;2023-02-14T05:13:35;16.48;;;11.52;;
30515;SDS011;17297;54.022;10.760;2023-02-14T05:16:01;20.17;;;12.38;;
30515;SDS011;17297;54.022;10.760;2023-02-14T05:18:26;16.25;;;11.48;;
30515;SDS011;17297;54.022;10.760;2023-02-14T05:20:52;19.42;;;12.93;;
30515;SDS011;17297;54.022;10.760;2023-02-14T05:23:19;17.05;;;12.07;;
30515;SDS011;17297;54.022;10.760;2023-02-14T05:25:48;16.92;;;12.43;;
30515;SDS011;17297;54.022;10.760;2023-02-14T05:28:16;16.48;;;11.40;;
30515;SDS011;17297;54.022;10.760;2023-02-14T05:30:44;19.30;;;12.55;;
30515;SDS011;17297;54.022;10.760;2023-02-14T05:33:10;17.88;;;12.80;;
30515;SDS011;17297;54.022;10.760;2023-02-14T05:35:35;17.13;;;11.48;;
30515;SDS011;17297;54.022;10.760;2023-02-14T05:38:01;18.38;;;11.52;;
30515;SDS011;17297;54.022;10.760;2023-02-14T05:40:27;18.55;;;11.90;;
30515;SDS011;17297;54.022;10.760;2023-02-14T05:42:53;15.73;;;10.85;;
30515;SDS011;17297;54.022;10.760;2023-02-14T05:45:20;17.00;;;11.05;;
30515;SDS011;17297;54.022;10.760;2023-02-14T05:47:46;18.75;;;12.15;;
30515;SDS011;17297;54.022;10.760;2023-02-14T05:50:12;19.75;;;12.98;;
30515;SDS011;17297;54.022;10.760;2023-02-14T05:52:37;15.45;;;10.15;;
30515;SDS011;17297;54.022;10.760;2023-02-14T05:55:03;18.45;;;12.63;;
30515;SDS011;17297;54.022;10.760;2023-02-14T05:57:28;17.52;;;11.13;;
30515;SDS011;17297;54.022;10.760;2023-02-14T05:59:54;17.35;;;11.48;;
30515;SDS011;17297;54.022;10.760;2023-02-14T06:02:19;17.67;;;11.35;;
30515;SDS011;17297;54.022;10.760;2023-02-14T06:04:44;15.30;;;10.60;;
30515;SDS011;17297;54.022;10.760;2023-02-14T06:07:10;16.85;;;11.43;;
30515;SDS011;17297;54.022;10.760;2023-02-14T06:09:35;17.88;;;11.90;;
30515;SDS011;17297;54.022;10.760;2023-02-14T06:12:00;20.75;;;12.65;;
30515;SDS011;17297;54.022;10.760;2023-02-14T06:14:26;17.38;;;11.75;;
30515;SDS011;17297;54.022;10.760;2023-02-14T06:16:51;18.10;;;11.48;;
30515;SDS011;17297;54.022;10.760;2023-02-14T06:19:16;20.33;;;12.40;;
30515;SDS011;17297;54.022;10.760;2023-02-14T06:21:42;18.95;;;11.77;;
30515;SDS011;17297;54.022;10.760;2023-02-14T06:24:07;17.25;;;12.02;;
30515;SDS011;17297;54.022;10.760;2023-02-14T06:26:33;17.20;;;11.82;;
30515;SDS011;17297;54.022;10.760;2023-02-14T06:29:00;18.83;;;11.45;;
30515;SDS011;17297;54.022;10.760;2023-02-14T06:31:26;16.40;;;11.45;;
30515;SDS011;17297;54.022;10.760;2023-02-14T06:33:52;16.88;;;11.50;;
30515;SDS011;17297;54.022;10.760;2023-02-14T06:36:18;20.83;;;13.23;;
30515;SDS011;17297;54.022;10.760;2023-02-14T06:38:44;18.20;;;11.70;;
30515;SDS011;17297;54.022;10.760;2023-02-14T06:41:11;19.83;;;12.82;;
30515;SDS011;17297;54.022;10.760;2023-02-14T06:43:39;20.02;;;12.98;;
30515;SDS011;17297;54.022;10.760;2023-02-14T06:46:05;21.65;;;13.25;;
30515;SDS011;17297;54.022;10.760;2023-02-14T06:48:31;20.50;;;12.15;;
30515;SDS011;17297;54.022;10.760;2023-02-14T06:50:56;19.65;;;11.93;;
30515;SDS011;17297;54.022;10.760;2023-02-14T06:53:22;22.60;;;12.52;;
30515;SDS011;17297;54.022;10.760;2023-02-14T06:55:47;19.45;;;12.75;;
30515;SDS011;17297;54.022;10.760;2023-02-14T06:58:13;18.40;;;11.35;;
30515;SDS011;17297;54.022;10.760;2023-02-14T07:00:38;21.08;;;12.70;;
30515;SDS011;17297;54.022;10.760;2023-02-14T07:03:04;20.80;;;11.82;;
30515;SDS011;17297;54.022;10.760;2023-02-14T07:05:30;23.17;;;12.05;;
30515;SDS011;17297;54.022;10.760;2023-02-14T07:07:56;20.25;;;12.80;;
30515;SDS011;17297;54.022;10.760;2023-02-14T07:10:22;20.13;;;11.52;;
30515;SDS011;17297;54.022;10.760;2023-02-14T07:12:47;20.98;;;13.32;;
30515;SDS011;17297;54.022;10.760;2023-02-14T07:15:13;19.95;;;12.02;;
30515;SDS011;17297;54.022;10.760;2023-02-14T07:17:38;21.85;;;12.70;;
30515;SDS011;17297;54.022;10.760;2023-02-14T07:20:04;20.35;;;11.60;;
30515;SDS011;17297;54.022;10.760;2023-02-14T07:22:31;18.80;;;11.07;;
30515;SDS011;17297;54.022;10.760;2023-02-14T07:24:57;20.85;;;12.35;;
30515;SDS011;17297;54.022;10.760;2023-02-14T07:27:22;21.63;;;12.63;;
30515;SDS011;17297;54.022;10.760;2023-02-14T07:29:48;23.13;;;13.63;;
30515;SDS011;17297;54.022;10.760;2023-02-14T07:32:13;22.15;;;12.10;;
30515;SDS011;17297;54.022;10.760;2023-02-14T07:34:38;22.65;;;12.50;;
30515;SDS011;17297;54.022;10.760;2023-02-14T07:37:04;24.48;;;13.82;;
30515;SDS011;17297;54.022;10.760;2023-02-14T07:39:29;24.15;;;14.23;;
30515;SDS011;17297;54.022;10.760;2023-02-14T07:41:54;21.02;;;12.77;;
30515;SDS011;17297;54.022;10.760;2023-02-14T07:44:20;26.17;;;14.95;;
30515;SDS011;17297;54.022;10.760;2023-02-14T07:46:45;25.35;;;13.68;;
30515;SDS011;17297;54.022;10.760;2023-02-14T07:49:11;19.38;;;11.73;;
30515;SDS011;17297;54.022;10.760;2023-02-14T07:51:36;22.65;;;13.43;;
30515;SDS011;17297;54.022;10.760;2023-02-14T07:54:02;23.90;;;13.82;;
30515;SDS011;17297;54.022;10.760;2023-02-14T07:56:27;22.98;;;13.88;;
30515;SDS011;17297;54.022;10.760;2023-02-14T07:58:53;19.15;;;12.63;;
30515;SDS011;17297;54.022;10.760;2023-02-14T08:01:18;25.40;;;13.38;;
30515;SDS011;17297;54.022;10.760;2023-02-14T08:03:45;17.52;;;11.90;;
30515;SDS011;17297;54.022;10.760;2023-02-14T08:06:14;22.95;;;12.63;;
30515;SDS011;17297;54.022;10.760;2023-02-14T08:08:40;21.75;;;12.23;;
30515;SDS011;17297;54.022;10.760;2023-02-14T08:11:05;23.50;;;13.23;;
30515;SDS011;17297;54.022;10.760;2023-02-14T08:13:30;21.30;;;13.07;;
30515;SDS011;17297;54.022;10.760;2023-02-14T08:15:56;23.05;;;11.93;;
30515;SDS011;17297;54.022;10.760;2023-02-14T08:18:33;20.65;;;12.20;;
30515;SDS011;17297;54.022;10.760;2023-02-14T08:21:00;21.52;;;11.77;;
30515;SDS011;17297;54.022;10.760;2023-02-14T08:23:27;20.92;;;12.02;;
30515;SDS011;17297;54.022;10.760;2023-02-14T08:25:52;21.88;;;12.88;;
30515;SDS011;17297;54.022;10.760;2023-02-14T08:28:18;23.67;;;12.93;;
30515;SDS011;17297;54.022;10.760;2023-02-14T08:30:44;26.73;;;14.30;;
30515;SDS011;17297;54.022;10.760;2023-02-14T08:33:10;26.55;;;14.73;;
30515;SDS011;17297;54.022;10.760;2023-02-14T08:35:36;25.38;;;14.23;;
30515;SDS011;17297;54.022;10.760;2023-02-14T08:38:03;26.77;;;14.55;;
30515;SDS011;17297;54.022;10.760;2023-02-14T08:40:29;27.05;;;14.77;;
30515;SDS011;17297;54.022;10.760;2023-02-14T08:42:54;22.92;;;12.57;;
30515;SDS011;17297;54.022;10.760;2023-02-14T08:45:20;22.70;;;13.38;;
30515;SDS011;17297;54.022;10.760;2023-02-14T08:47:45;22.88;;;12.32;;
30515;SDS011;17297;54.022;10.760;2023-02-14T08:50:13;24.80;;;13.23;;
30515;SDS011;17297;54.022;10.760;2023-02-14T08:52:41;20.90;;;11.77;;
30515;SDS011;17297;54.022;10.760;2023-02-14T08:55:08;20.27;;;11.60;;
30515;SDS011;17297;54.022;10.760;2023-02-14T08:57:34;23.13;;;12.52;;
30515;SDS011;17297;54.022;10.760;2023-02-14T08:59:59;25.05;;;13.48;;
30515;SDS011;17297;54.022;10.760;2023-02-14T09:02:25;21.20;;;12.60;;
30515;SDS011;17297;54.022;10.760;2023-02-14T09:04:50;23.70;;;13.75;;
30515;SDS011;17297;54.022;10.760;2023-02-14T09:07:15;25.13;;;13.60;;
30515;SDS011;17297;54.022;10.760;2023-02-14T09:09:41;22.40;;;12.30;;
30515;SDS011;17297;54.022;10.760;2023-02-14T09:12:07;21.45;;;12.77;;
30515;SDS011;17297;54.022;10.760;2023-02-14T09:14:34;23.30;;;13.10;;
30515;SDS011;17297;54.022;10.760;2023-02-14T09:17:00;22.45;;;13.52;;
30515;SDS011;17297;54.022;10.760;2023-02-14T09:19:29;22.63;;;13.80;;
30515;SDS011;17297;54.022;10.760;2023-02-14T09:21:58;21.50;;;12.75;;
30515;SDS011;17297;54.022;10.760;2023-02-14T09:24:24;23.45;;;14.25;;
30515;SDS011;17297;54.022;10.760;2023-02-14T09:26:51;21.17;;;11.55;;
30515;SDS011;17297;54.022;10.760;2023-02-14T09:29:17;23.10;;;12.30;;
30515;SDS011;17297;54.022;10.760;2023-02-14T09:31:43;22.55;;;14.20;;
30515;SDS011;17297;54.022;10.760;2023-02-14T09:34:08;24.55;;;14.18;;
30515;SDS011;17297;54.022;10.760;2023-02-14T09:36:52;21.75;;;13.18;;
30515;SDS011;17297;54.022;10.760;2023-02-14T09:39:37;26.38;;;13.85;;
30515;SDS011;17297;54.022;10.760;2023-02-14T09:44:51;21.27;;;13.23;;
30515;SDS011;17297;54.022;10.760;2023-02-14T09:47:32;23.27;;;12.20;;
30515;SDS011;17297;54.022;10.760;2023-02-14T09:49:59;23.42;;;13.15;;
30515;SDS011;17297;54.022;10.760;2023-02-14T09:52:26;22.70;;;13.43;;
30515;SDS011;17297;54.022;10.760;2023-02-14T09:54:56;21.88;;;14.63;;
30515;SDS011;17297;54.022;10.760;2023-02-14T09:57:29;23.98;;;12.13;;
30515;SDS011;17297;54.022;10.760;2023-02-14T10:03:20;20.03;;;11.90;;
30515;SDS011;17297;54.022;10.760;2023-02-14T10:08:26;17.63;;;10.75;;
30515;SDS011;17297;54.022;10.760;2023-02-14T10:11:05;23.42;;;12.75;;
30515;SDS011;17297;54.022;10.760;2023-02-14T10:13:39;25.17;;;13.77;;
30515;SDS011;17297;54.022;10.760;2023-02-14T10:16:12;26.50;;;14.18;;
30515;SDS011;17297;54.022;10.760;2023-02-14T10:19:04;25.55;;;13.95;;
30515;SDS011;17297;54.022;10.760;2023-02-14T10:21:40;25.98;;;14.77;;
30515;SDS011;17297;54.022;10.760;2023-02-14T10:26:42;28.45;;;15.07;;
30515;SDS011;17297;54.022;10.760;2023-02-14T10:29:14;26.88;;;14.57;;
30515;SDS011;17297;54.022;10.760;2023-02-14T10:34:24;29.35;;;16.92;;
30515;SDS011;17297;54.022;10.760;2023-02-14T10:40:08;30.02;;;15.15;;
30515;SDS011;17297;54.022;10.760;2023-02-14T10:45:25;24.80;;;14.75;;
30515;SDS011;17297;54.022;10.760;2023-02-14T10:50:45;27.83;;;15.30;;
30515;SDS011;17297;54.022;10.760;2023-02-14T10:53:21;26.80;;;15.18;;
30515;SDS011;17297;54.022;10.760;2023-02-14T10:55:58;26.63;;;15.95;;
30515;SDS011;17297;54.022;10.760;2023-02-14T10:58:31;29.92;;;16.45;;
30515;SDS011;17297;54.022;10.760;2023-02-14T11:01:03;26.95;;;16.35;;
30515;SDS011;17297;54.022;10.760;2023-02-14T11:03:32;30.08;;;16.42;;
30515;SDS011;17297;54.022;10.760;2023-02-14T11:06:00;27.38;;;15.25;;
30515;SDS011;17297;54.022;10.760;2023-02-14T11:08:32;29.30;;;15.13;;
30515;SDS011;17297;54.022;10.760;2023-02-14T11:13:49;32.65;;;17.45;;
30515;SDS011;17297;54.022;10.760;2023-02-14T11:16:31;27.35;;;16.60;;
30515;SDS011;17297;54.022;10.760;2023-02-14T11:19:16;25.50;;;13.90;;
30515;SDS011;17297;54.022;10.760;2023-02-14T11:21:45;24.05;;;13.35;;
30515;SDS011;17297;54.022;10.760;2023-02-14T11:24:28;22.20;;;12.40;;
30515;SDS011;17297;54.022;10.760;2023-02-14T11:27:03;26.48;;;14.25;;
30515;SDS011;17297;54.022;10.760;2023-02-14T11:29:35;26.17;;;15.32;;
30515;SDS011;17297;54.022;10.760;2023-02-14T11:34:37;26.25;;;14.68;;
30515;SDS011;17297;54.022;10.760;2023-02-14T11:37:15;27.60;;;14.55;;
30515;SDS011;17297;54.022;10.760;2023-02-14T11:39:49;28.45;;;15.00;;
30515;SDS011;17297;54.022;10.760;2023-02-14T11:45:06;30.23;;;17.40;;
30515;SDS011;17297;54.022;10.760;2023-02-14T11:47:49;33.05;;;16.75;;
30515;SDS011;17297;54.022;10.760;2023-02-14T11:50:34;32.35;;;16.17;;
30515;SDS011;17297;54.022;10.760;2023-02-14T11:53:02;32.35;;;17.27;;
30515;SDS011;17297;54.022;10.760;2023-02-14T11:55:31;29.65;;;15.90;;
30515;SDS011;17297;54.022;10.760;2023-02-14T11:57:57;31.15;;;17.52;;
30515;SDS011;17297;54.022;10.760;2023-02-14T12:00:26;29.45;;;15.10;;
30515;SDS011;17297;54.022;10.760;2023-02-14T12:02:55;33.63;;;17.63;;
30515;SDS011;17297;54.022;10.760;2023-02-14T12:05:26;30.95;;;17.05;;
30515;SDS011;17297;54.022;10.760;2023-02-14T12:07:55;31.33;;;16.70;;
30515;SDS011;17297;54.022;10.760;2023-02-14T12:10:33;31.17;;;16.25;;
30515;SDS011;17297;54.022;10.760;2023-02-14T12:15:39;29.48;;;16.70;;
30515;SDS011;17297;54.022;10.760;2023-02-14T12:29:11;29.77;;;15.73;;
30515;SDS011;17297;54.022;10.760;2023-02-14T12:31:42;34.88;;;17.05;;
30515;SDS011;17297;54.022;10.760;2023-02-14T12:34:09;28.42;;;16.45;;
30515;SDS011;17297;54.022;10.760;2023-02-14T12:36:40;28.67;;;15.60;;
30515;SDS011;17297;54.022;10.760;2023-02-14T12:39:43;41.33;;;18.50;;
30515;SDS011;17297;54.022;10.760;2023-02-14T12:42:27;26.50;;;14.55;;
30515;SDS011;17297;54.022;10.760;2023-02-14T12:53:32;28.88;;;15.32;;
30515;SDS011;17297;54.022;10.760;2023-02-14T12:56:10;30.48;;;16.95;;
30515;SDS011;17297;54.022;10.760;2023-02-14T13:01:28;32.42;;;16.70;;
30515;SDS011;17297;54.022;10.760;2023-02-14T13:04:32;26.88;;;14.48;;
30515;SDS011;17297;54.022;10.760;2023-02-14T13:07:42;30.25;;;17.70;;
30515;SDS011;17297;54.022;10.760;2023-02-14T13:18:38;28.27;;;13.75;;
30515;SDS011;17297;54.022;10.760;2023-02-14T13:21:12;30.20;;;14.70;;
30515;SDS011;17297;54.022;10.760;2023-02-14T13:23:41;29.58;;;16.30;;
30515;SDS011;17297;54.022;10.760;2023-02-14T13:31:30;30.23;;;15.95;;
30515;SDS011;17297;54.022;10.760;2023-02-14T13:33:58;29.38;;;16.25;;
30515;SDS011;17297;54.022;10.760;2023-02-14T13:36:27;35.10;;;16.30;;
30515;SDS011;17297;54.022;10.760;2023-02-14T13:38:55;36.88;;;18.10;;
30515;SDS011;17297;54.022;10.760;2023-02-14T13:41:23;34.10;;;17.80;;
30515;SDS011;17297;54.022;10.760;2023-02-14T13:51:50;31.67;;;17.15;;
30515;SDS011;17297;54.022;10.760;2023-02-14T13:54:25;30.17;;;17.00;;
30515;SDS011;17297;54.022;10.760;2023-02-14T13:56:52;31.00;;;18.00;;
30515;SDS011;17297;54.022;10.760;2023-02-14T13:59:25;33.45;;;17.25;;
30515;SDS011;17297;54.022;10.760;2023-02-14T14:02:28;36.10;;;18.13;;
30515;SDS011;17297;54.022;10.760;2023-02-14T14:04:52;32.40;;;17.63;;
30515;SDS011;17297;54.022;10.760;2023-02-14T14:07:26;32.38;;;15.95;;
30515;SDS011;17297;54.022;10.760;2023-02-14T14:09:56;39.40;;;17.88;;
30515;SDS011;17297;54.022;10.760;2023-02-14T14:20:43;33.53;;;17.13;;
30515;SDS011;17297;54.022;10.760;2023-02-14T14:23:25;34.92;;;17.25;;
30515;SDS011;17297;54.022;10.760;2023-02-14T14:25:53;36.25;;;18.65;;
30515;SDS011;17297;54.022;10.760;2023-02-14T14:28:20;29.38;;;15.98;;
30515;SDS011;17297;54.022;10.760;2023-02-14T14:30:47;32.55;;;16.63;;
30515;SDS011;17297;54.022;10.760;2023-02-14T14:33:14;32.08;;;15.57;;
30515;SDS011;17297;54.022;10.760;2023-02-14T14:36:07;30.63;;;15.45;;
30515;SDS011;17297;54.022;10.760;2023-02-14T14:38:47;38.40;;;16.58;;
30515;SDS011;17297;54.022;10.760;2023-02-14T14:41:14;34.45;;;17.85;;
30515;SDS011;17297;54.022;10.760;2023-02-14T14:43:39;32.85;;;17.13;;
30515;SDS011;17297;54.022;10.760;2023-02-14T14:46:07;30.88;;;16.38;;
30515;SDS011;17297;54.022;10.760;2023-02-14T14:48:45;31.83;;;16.02;;
30515;SDS011;17297;54.022;10.760;2023-02-14T14:51:16;35.75;;;18.65;;
30515;SDS011;17297;54.022;10.760;2023-02-14T14:53:49;28.45;;;15.65;;
30515;SDS011;17297;54.022;10.760;2023-02-14T14:56:20;29.05;;;15.88;;
30515;SDS011;17297;54.022;10.760;2023-02-14T14:58:47;27.98;;;14.18;;
30515;SDS011;17297;54.022;10.760;2023-02-14T15:01:27;28.60;;;15.45;;
30515;SDS011;17297;54.022;10.760;2023-02-14T15:04:09;33.90;;;17.17;;
30515;SDS011;17297;54.022;10.760;2023-02-14T15:06:43;33.85;;;16.35;;
30515;SDS011;17297;54.022;10.760;2023-02-14T15:09:14;28.52;;;14.77;;
30515;SDS011;17297;54.022;10.760;2023-02-14T15:11:48;36.83;;;18.17;;
30515;SDS011;17297;54.022;10.760;2023-02-14T15:14:39;31.90;;;17.75;;
30515;SDS011;17297;54.022;10.760;2023-02-14T15:17:20;31.27;;;16.15;;
30515;SDS011;17297;54.022;10.760;2023-02-14T15:19:51;33.03;;;17.00;;
30515;SDS011;17297;54.022;10.760;2023-02-14T15:25:10;35.25;;;16.83;;
30515;SDS011;17297;54.022;10.760;2023-02-14T15:27:56;29.88;;;14.52;;
30515;SDS011;17297;54.022;10.760;2023-02-14T15:30:23;28.20;;;14.55;;
30515;SDS011;17297;54.022;10.760;2023-02-14T15:32:53;33.85;;;16.83;;
30515;SDS011;17297;54.022;10.760;2023-02-14T15:35:22;32.60;;;16.25;;
30515;SDS011;17297;54.022;10.760;2023-02-14T15:37:51;30.50;;;14.85;;
30515;SDS011;17297;54.022;10.760;2023-02-14T15:40:19;32.80;;;15.43;;
30515;SDS011;17297;54.022;10.760;2023-02-14T15:42:49;31.67;;;15.35;;
30515;SDS011;17297;54.022;10.760;2023-02-14T15:47:51;27.17;;;14.63;;
30515;SDS011;17297;54.022;10.760;2023-02-14T15:50:22;31.10;;;16.05;;
30515;SDS011;17297;54.022;10.760;2023-02-14T15:52:55;32.08;;;15.60;;
30515;SDS011;17297;54.022;10.760;2023-02-14T15:55:28;30.23;;;15.60;;
30515;SDS011;17297;54.022;10.760;2023-02-14T15:57:55;34.70;;;17.38;;
30515;SDS011;17297;54.022;10.760;2023-02-14T16:00:26;28.00;;;14.07;;
30515;SDS011;17297;54.022;10.760;2023-02-14T16:02:54;35.40;;;16.42;;
30515;SDS011;17297;54.022;10.760;2023-02-14T16:05:24;30.52;;;15.25;;
30515;SDS011;17297;54.022;10.760;2023-02-14T16:08:01;29.25;;;15.45;;
30515;SDS011;17297;54.022;10.760;2023-02-14T16:13:02;34.17;;;15.32;;
30515;SDS011;17297;54.022;10.760;2023-02-14T16:15:31;32.30;;;16.33;;
30515;SDS011;17297;54.022;10.760;2023-02-14T16:17:58;33.70;;;16.02;;
30515;SDS011;17297;54.022;10.760;2023-02-14T16:25:51;30.60;;;15.55;;
30515;SDS011;17297;54.022;10.760;2023-02-14T16:28:17;31.25;;;14.40;;
30515;SDS011;17297;54.022;10.760;2023-02-14T16:30:44;28.40;;;13.80;;
30515;SDS011;17297;54.022;10.760;2023-02-14T16:33:16;28.08;;;14.30;;
30515;SDS011;17297;54.022;10.760;2023-02-14T16:35:45;31.98;;;15.07;;